Time;durP1;ratioP1;P1;durP2;ratioP2;P2;SDS_P1;SDS_P2;PMS_P1;PMS_P2;Temp;Humidity;BMP_temperature;BMP_pressure;BME280_temperature;BME280_humidity;BME280_pressure;Samples;Min_cycle;Max_cycle;Signal;HPM_P1;HPM_P2
2022/02/11 00:06:46;;;;;;;6.07;5.57;;;;;;;;;;5017328;28;20064;-58
2022/02/11 00:09:12;;;;;;;7.03;6.32;;;;;;;;;;5016839;28;20088;-58
2022/02/11 00:11:40;;;;;;;9.38;6.65;;;;;;;;;;5018354;28;20037;-58
2022/02/11 00:14:08;;;;;;;6.78;5.28;;;;;;;;;;5017364;28;20144;-58
2022/02/11 00:16:35;;;;;;;4.70;4.30;;;;;;;;;;5019190;28;20041;-58
2022/02/11 00:19:01;;;;;;;6.00;5.35;;;;;;;;;;5017494;28;20048;-58
2022/02/11 00:21:31;;;;;;;6.32;5.57;;;;;;;;;;5021946;28;20064;-57
2022/02/11 00:23:58;;;;;;;7.53;5.85;;;;;;;;;;5019843;28;20631;-60
2022/02/11 00:26:34;;;;;;;5.40;4.90;;;;;;;;;;5018928;28;20069;-60
2022/02/11 00:34:30;;;;;;;4.65;4.25;;;;;;;;;;5016948;28;20041;-59
2022/02/11 00:37:08;;;;;;;3.80;3.50;;;;;;;;;;5018695;28;20033;-59
2022/02/11 00:40:02;;;;;;;4.18;3.88;;;;;;;;;;5019203;28;20363;-59
2022/02/11 01:04:15;;;;;;;4.13;3.83;;;;;;;;;;5019770;28;20076;-58
2022/02/11 01:06:42;;;;;;;3.70;3.40;;;;;;;;;;5018214;28;20487;-59
2022/02/11 01:09:12;;;;;;;3.55;3.25;;;;;;;;;;5020006;28;20049;-59
2022/02/11 01:11:48;;;;;;;3.60;3.30;;;;;;;;;;5018835;28;20041;-59
2022/02/11 01:14:14;;;;;;;3.92;3.63;;;;;;;;;;5019019;28;20051;-60
2022/02/11 01:16:48;;;;;;;3.50;3.20;;;;;;;;;;5018129;28;20127;-59
2022/02/11 01:22:01;;;;;;;3.83;3.53;;;;;;;;;;5018566;28;20028;-59
2022/02/11 01:27:31;;;;;;;3.88;3.58;;;;;;;;;;5020045;28;20044;-59
2022/02/11 01:54:10;;;;;;;4.50;4.15;;;;;;;;;;5021896;28;20033;-59
2022/02/11 01:59:36;;;;;;;4.05;3.65;;;;;;;;;;5016993;28;20115;-60
2022/02/11 02:10:13;;;;;;;3.78;3.47;;;;;;;;;;5021858;28;20117;-59
2022/02/11 02:12:59;;;;;;;3.95;3.65;;;;;;;;;;5023147;28;20033;-59
2022/02/11 02:16:01;;;;;;;3.72;3.42;;;;;;;;;;5018943;28;20056;-59
2022/02/11 02:19:04;;;;;;;3.55;3.25;;;;;;;;;;5021475;28;20387;-59
2022/02/11 02:23:57;;;;;;;3.53;3.22;;;;;;;;;;5021260;28;20044;-59
2022/02/11 02:34:12;;;;;;;3.80;3.50;;;;;;;;;;5021599;28;20034;-59
2022/02/11 02:37:14;;;;;;;3.95;3.65;;;;;;;;;;5018477;28;20467;-59
2022/02/11 03:16:01;;;;;;;3.67;3.38;;;;;;;;;;5020511;28;20069;-59
2022/02/11 03:34:51;;;;;;;3.63;3.33;;;;;;;;;;5017626;28;20407;-59
2022/02/11 03:51:33;;;;;;;3.33;3.03;;;;;;;;;;5020043;28;20037;-59
2022/02/11 03:57:37;;;;;;;3.75;3.45;;;;;;;;;;5016267;28;20470;-60
2022/02/11 04:56:11;;;;;;;3.97;3.67;;;;;;;;;;5015811;28;20628;-58
2022/02/11 05:01:20;;;;;;;4.55;4.20;;;;;;;;;;5019640;28;20083;-59
2022/02/11 05:03:46;;;;;;;4.28;3.95;;;;;;;;;;5014968;28;20935;-59
2022/02/11 05:06:12;;;;;;;4.95;4.55;;;;;;;;;;5015590;28;20040;-59
2022/02/11 05:08:38;;;;;;;4.25;3.88;;;;;;;;;;5011631;28;20416;-59
2022/02/11 05:11:03;;;;;;;4.80;4.40;;;;;;;;;;5013625;28;20116;-59
2022/02/11 05:13:29;;;;;;;4.30;3.90;;;;;;;;;;5012331;28;20042;-59
2022/02/11 05:15:55;;;;;;;4.50;4.10;;;;;;;;;;5015921;28;20064;-59
2022/02/11 05:18:20;;;;;;;4.78;4.38;;;;;;;;;;5011543;28;20041;-59
2022/02/11 05:20:46;;;;;;;3.80;3.50;;;;;;;;;;5012004;28;20459;-59
2022/02/11 05:23:13;;;;;;;4.25;3.85;;;;;;;;;;5018051;28;20073;-60
2022/02/11 05:25:41;;;;;;;4.00;3.70;;;;;;;;;;5014735;28;20037;-60
2022/02/11 05:28:07;;;;;;;4.57;4.10;;;;;;;;;;5013228;28;20395;-60
2022/02/11 05:30:33;;;;;;;3.85;3.55;;;;;;;;;;5018891;28;20041;-60
2022/02/11 05:33:03;;;;;;;4.63;4.22;;;;;;;;;;5018464;28;20047;-59
2022/02/11 05:35:28;;;;;;;4.35;3.95;;;;;;;;;;5018920;28;20045;-59
2022/02/11 05:37:54;;;;;;;4.00;3.70;;;;;;;;;;5019232;28;20550;-59
2022/02/11 05:40:19;;;;;;;3.70;3.40;;;;;;;;;;5015440;28;20536;-59
2022/02/11 05:42:45;;;;;;;4.13;3.80;;;;;;;;;;5017284;28;20573;-59
2022/02/11 05:45:10;;;;;;;4.57;4.18;;;;;;;;;;5015997;28;20042;-59
2022/02/11 05:47:36;;;;;;;4.57;4.18;;;;;;;;;;5013861;28;20041;-59
2022/02/11 05:50:03;;;;;;;4.50;4.10;;;;;;;;;;5019496;28;20036;-59
2022/02/11 05:52:33;;;;;;;4.75;4.35;;;;;;;;;;5017738;28;20066;-59
2022/02/11 05:54:59;;;;;;;4.40;4.03;;;;;;;;;;5020163;28;20068;-59
2022/02/11 05:57:25;;;;;;;3.88;3.58;;;;;;;;;;5019776;28;20042;-59
2022/02/11 05:59:51;;;;;;;3.88;3.58;;;;;;;;;;5015030;28;20033;-60
2022/02/11 06:02:17;;;;;;;3.88;3.58;;;;;;;;;;5015462;28;20034;-59
2022/02/11 06:04:45;;;;;;;4.32;3.92;;;;;;;;;;5014725;28;20040;-59
2022/02/11 06:07:11;;;;;;;4.35;3.85;;;;;;;;;;5014068;28;20120;-59
2022/02/11 06:09:36;;;;;;;4.10;3.72;;;;;;;;;;5013451;28;20618;-59
2022/02/11 06:12:02;;;;;;;4.05;3.65;;;;;;;;;;5013645;28;20034;-59
2022/02/11 06:14:27;;;;;;;4.43;4.03;;;;;;;;;;5015400;28;20052;-59
2022/02/11 06:16:53;;;;;;;4.30;3.90;;;;;;;;;;5013425;28;20137;-59
2022/02/11 06:19:18;;;;;;;3.72;3.42;;;;;;;;;;5014543;28;20045;-59
2022/02/11 06:21:44;;;;;;;4.38;3.97;;;;;;;;;;5012062;28;20038;-58
2022/02/11 06:24:09;;;;;;;3.45;3.15;;;;;;;;;;5010778;28;20115;-59
2022/02/11 06:26:35;;;;;;;4.40;4.00;;;;;;;;;;5015072;28;20436;-59
2022/02/11 06:29:00;;;;;;;4.28;3.88;;;;;;;;;;5014159;28;20061;-59
2022/02/11 06:31:26;;;;;;;4.05;3.75;;;;;;;;;;5014138;28;20045;-59
2022/02/11 06:33:52;;;;;;;3.78;3.40;;;;;;;;;;5013301;28;20036;-59
2022/02/11 06:36:17;;;;;;;3.47;3.15;;;;;;;;;;5013975;28;20038;-59
2022/02/11 06:38:43;;;;;;;4.05;3.65;;;;;;;;;;5017155;28;20475;-59
2022/02/11 06:41:08;;;;;;;4.40;4.00;;;;;;;;;;5019037;28;20049;-59
2022/02/11 06:43:33;;;;;;;3.42;3.13;;;;;;;;;;5019496;28;20030;-59
2022/02/11 06:46:01;;;;;;;3.92;3.55;;;;;;;;;;5018276;28;20516;-60
2022/02/11 06:48:26;;;;;;;4.05;3.65;;;;;;;;;;5016385;28;20041;-59
2022/02/11 06:50:53;;;;;;;3.85;3.55;;;;;;;;;;5016560;28;20398;-59
2022/02/11 06:53:19;;;;;;;3.90;3.53;;;;;;;;;;5017390;28;20030;-60
2022/02/11 06:55:44;;;;;;;3.63;3.33;;;;;;;;;;5020125;28;20530;-60
2022/02/11 06:58:10;;;;;;;4.18;3.78;;;;;;;;;;5021902;28;20053;-59
2022/02/11 07:00:38;;;;;;;4.38;3.70;;;;;;;;;;5022324;28;20064;-60
2022/02/11 07:03:04;;;;;;;3.50;3.20;;;;;;;;;;5019712;28;20037;-59
2022/02/11 07:05:29;;;;;;;4.13;3.72;;;;;;;;;;5017275;28;20030;-60
2022/02/11 07:07:55;;;;;;;3.78;3.47;;;;;;;;;;5020238;28;20026;-60
2022/02/11 07:10:20;;;;;;;4.53;4.10;;;;;;;;;;5023159;28;20026;-60
2022/02/11 07:12:46;;;;;;;3.63;3.33;;;;;;;;;;5017869;28;20506;-59
2022/02/11 07:15:12;;;;;;;4.53;4.13;;;;;;;;;;5021721;28;20034;-59
2022/02/11 07:17:38;;;;;;;4.57;4.18;;;;;;;;;;5022424;28;20422;-59
2022/02/11 07:20:06;;;;;;;4.25;3.85;;;;;;;;;;5021095;28;20044;-59
2022/02/11 07:22:34;;;;;;;5.00;4.32;;;;;;;;;;5020673;28;20142;-59
2022/02/11 07:25:05;;;;;;;3.80;3.50;;;;;;;;;;5020073;28;20111;-59
2022/02/11 07:27:30;;;;;;;5.90;5.32;;;;;;;;;;5020408;28;20067;-60
2022/02/11 07:29:55;;;;;;;5.07;4.68;;;;;;;;;;5018879;28;20440;-59
2022/02/11 07:32:21;;;;;;;3.90;3.60;;;;;;;;;;5021054;28;20550;-59
2022/02/11 07:34:46;;;;;;;6.60;4.85;;;;;;;;;;5022005;28;20125;-60
2022/02/11 07:37:12;;;;;;;4.40;4.00;;;;;;;;;;5018998;28;20044;-60
2022/02/11 07:39:37;;;;;;;5.18;4.68;;;;;;;;;;5023149;28;20041;-60
2022/02/11 07:42:03;;;;;;;4.50;4.10;;;;;;;;;;5018875;28;20104;-60
2022/02/11 07:44:28;;;;;;;4.85;4.45;;;;;;;;;;5022882;28;20045;-60
2022/02/11 07:46:53;;;;;;;4.10;3.70;;;;;;;;;;5020924;28;20362;-60
2022/02/11 07:49:19;;;;;;;4.07;3.67;;;;;;;;;;5020426;28;20057;-60
2022/02/11 07:51:44;;;;;;;3.70;3.40;;;;;;;;;;5019387;28;20061;-59
2022/02/11 07:54:09;;;;;;;3.78;3.47;;;;;;;;;;5020549;28;20034;-59
2022/02/11 07:56:35;;;;;;;4.40;4.00;;;;;;;;;;5021384;28;20099;-59
2022/02/11 07:59:00;;;;;;;4.80;4.40;;;;;;;;;;5021963;28;20047;-60
2022/02/11 08:01:25;;;;;;;3.67;3.38;;;;;;;;;;5020686;28;20113;-59
2022/02/11 08:03:51;;;;;;;4.90;3.92;;;;;;;;;;5019605;28;20106;-60
2022/02/11 08:06:17;;;;;;;3.88;3.55;;;;;;;;;;5020883;28;20036;-59
2022/02/11 08:08:42;;;;;;;3.90;3.60;;;;;;;;;;5020443;28;20542;-59
2022/02/11 08:11:07;;;;;;;5.95;4.63;;;;;;;;;;5021370;28;20034;-59
2022/02/11 08:13:33;;;;;;;4.78;4.35;;;;;;;;;;5018442;28;20463;-59
2022/02/11 08:15:59;;;;;;;4.25;3.90;;;;;;;;;;5019825;28;20033;-60
2022/02/11 08:18:25;;;;;;;5.57;4.38;;;;;;;;;;5019822;28;20065;-59
2022/02/11 08:20:50;;;;;;;3.83;3.53;;;;;;;;;;5023040;28;20029;-59
2022/02/11 08:23:16;;;;;;;4.47;4.07;;;;;;;;;;5019976;28;20034;-59
2022/02/11 08:25:41;;;;;;;3.90;3.50;;;;;;;;;;5018259;28;20493;-59
2022/02/11 08:28:07;;;;;;;4.03;3.65;;;;;;;;;;5021179;28;20053;-60
2022/02/11 08:30:32;;;;;;;5.93;5.32;;;;;;;;;;5021974;28;20029;-60
2022/02/11 08:32:57;;;;;;;4.43;4.03;;;;;;;;;;5019284;28;20460;-60
2022/02/11 08:35:23;;;;;;;3.92;3.63;;;;;;;;;;5020183;28;20060;-59
2022/02/11 08:37:48;;;;;;;4.68;4.28;;;;;;;;;;5019661;28;20094;-59
2022/02/11 08:40:13;;;;;;;4.28;3.70;;;;;;;;;;5004056;28;20045;-59
2022/02/11 08:42:39;;;;;;;6.82;4.20;;;;;;;;;;5018105;28;20034;-59
2022/02/11 08:45:07;;;;;;;3.80;3.50;;;;;;;;;;5013678;28;20507;-59
2022/02/11 08:47:32;;;;;;;4.43;3.90;;;;;;;;;;5015273;28;20045;-60
2022/02/11 08:50:00;;;;;;;4.25;3.85;;;;;;;;;;5018258;28;20444;-59
2022/02/11 08:52:27;;;;;;;4.25;3.83;;;;;;;;;;5018147;28;20029;-59
2022/02/11 08:54:53;;;;;;;4.38;3.97;;;;;;;;;;5020265;28;20420;-59
2022/02/11 08:57:19;;;;;;;3.53;3.22;;;;;;;;;;5018796;28;20180;-59
2022/02/11 08:59:45;;;;;;;3.92;3.53;;;;;;;;;;5016847;28;20116;-59
2022/02/11 09:02:11;;;;;;;3.25;2.95;;;;;;;;;;5018777;28;20044;-59
2022/02/11 09:04:43;;;;;;;7.65;4.45;;;;;;;;;;5018434;28;20057;-59
2022/02/11 09:07:09;;;;;;;4.13;3.72;;;;;;;;;;5013269;28;20048;-60
2022/02/11 09:09:35;;;;;;;4.90;4.20;;;;;;;;;;5015116;28;20033;-60
2022/02/11 09:12:00;;;;;;;4.35;3.95;;;;;;;;;;5017972;28;20871;-60
2022/02/11 09:14:26;;;;;;;4.18;3.78;;;;;;;;;;5015311;28;20108;-60
2022/02/11 09:16:51;;;;;;;4.65;4.25;;;;;;;;;;5017125;28;20034;-60
2022/02/11 09:19:17;;;;;;;3.50;3.20;;;;;;;;;;5017563;28;20036;-60
2022/02/11 09:21:42;;;;;;;4.72;4.32;;;;;;;;;;5018807;28;20116;-60
2022/02/11 09:24:08;;;;;;;4.60;4.20;;;;;;;;;;5017530;28;20114;-60
2022/02/11 09:26:34;;;;;;;4.82;4.32;;;;;;;;;;5015723;28;20095;-60
2022/02/11 09:29:04;;;;;;;4.22;3.88;;;;;;;;;;5019189;28;20413;-60
2022/02/11 09:31:30;;;;;;;3.70;3.40;;;;;;;;;;5019460;28;20084;-58
2022/02/11 09:34:03;;;;;;;3.80;3.50;;;;;;;;;;5020756;28;20071;-59
2022/02/11 09:36:34;;;;;;;4.32;3.92;;;;;;;;;;5017473;28;20109;-58
2022/02/11 09:39:01;;;;;;;3.95;3.65;;;;;;;;;;5019295;28;20471;-59
2022/02/11 09:41:28;;;;;;;4.43;4.03;;;;;;;;;;5018130;28;20041;-59
2022/02/11 09:43:53;;;;;;;4.38;3.97;;;;;;;;;;5019063;28;20118;-59
2022/02/11 09:46:19;;;;;;;5.28;4.47;;;;;;;;;;5019186;28;20580;-59
2022/02/11 09:48:45;;;;;;;5.38;4.30;;;;;;;;;;5021425;28;20483;-58
2022/02/11 09:51:11;;;;;;;3.85;3.55;;;;;;;;;;5017778;28;20072;-59
2022/02/11 09:53:36;;;;;;;4.03;3.70;;;;;;;;;;5018267;28;20175;-59
2022/02/11 09:56:03;;;;;;;10.88;3.83;;;;;;;;;;5020176;28;20045;-59
2022/02/11 09:58:29;;;;;;;4.60;4.03;;;;;;;;;;5017732;28;20045;-59
2022/02/11 10:00:55;;;;;;;3.83;3.53;;;;;;;;;;5019858;28;20022;-59
2022/02/11 10:03:31;;;;;;;3.97;3.67;;;;;;;;;;5017508;28;20041;-59
2022/02/11 10:06:00;;;;;;;3.50;3.20;;;;;;;;;;5017925;28;20038;-59
2022/02/11 10:08:27;;;;;;;4.15;3.75;;;;;;;;;;5019811;28;20056;-59
2022/02/11 10:10:54;;;;;;;16.38;3.65;;;;;;;;;;5016912;28;20087;-59
2022/02/11 10:13:27;;;;;;;3.60;3.30;;;;;;;;;;5017396;28;20462;-59
2022/02/11 10:15:56;;;;;;;3.53;3.22;;;;;;;;;;5019077;28;20026;-59
2022/02/11 10:18:27;;;;;;;3.92;3.63;;;;;;;;;;5015649;28;20038;-59
2022/02/11 10:20:56;;;;;;;3.70;3.40;;;;;;;;;;5019541;28;20036;-59
2022/02/11 10:23:36;;;;;;;6.88;3.67;;;;;;;;;;5016970;28;20076;-59
2022/02/11 10:26:10;;;;;;;4.38;3.63;;;;;;;;;;5018937;28;20041;-58
2022/02/11 10:28:51;;;;;;;4.47;3.63;;;;;;;;;;5018798;28;20100;-59
2022/02/11 10:31:20;;;;;;;3.87;3.47;;;;;;;;;;5022542;28;20039;-59
2022/02/11 10:34:00;;;;;;;4.18;3.78;;;;;;;;;;5022117;28;20034;-59
2022/02/11 10:36:28;;;;;;;3.87;3.57;;;;;;;;;;5023451;28;20049;-59
2022/02/11 10:39:21;;;;;;;3.42;3.13;;;;;;;;;;5021745;28;20274;-59
2022/02/11 10:41:53;;;;;;;3.67;3.38;;;;;;;;;;5023294;28;20604;-59
2022/02/11 10:44:31;;;;;;;4.22;3.63;;;;;;;;;;5023474;28;20120;-59
2022/02/11 10:47:03;;;;;;;4.15;3.75;;;;;;;;;;5019845;28;20514;-60
2022/02/11 10:49:30;;;;;;;3.50;3.20;;;;;;;;;;5019349;28;20463;-60
2022/02/11 10:51:55;;;;;;;3.55;3.25;;;;;;;;;;5022473;28;20038;-59
2022/02/11 10:54:21;;;;;;;4.05;3.70;;;;;;;;;;5021808;28;20469;-59
2022/02/11 10:56:49;;;;;;;3.92;3.63;;;;;;;;;;5016550;28;20033;-59
2022/02/11 10:59:26;;;;;;;3.85;3.55;;;;;;;;;;5018852;28;20042;-58
2022/02/11 11:01:53;;;;;;;3.63;3.33;;;;;;;;;;5024626;28;20030;-58
2022/02/11 11:04:19;;;;;;;4.80;4.40;;;;;;;;;;5022039;28;20108;-59
2022/02/11 11:06:46;;;;;;;3.85;3.55;;;;;;;;;;5019089;28;20088;-58
2022/02/11 11:09:14;;;;;;;3.60;3.30;;;;;;;;;;5021260;28;20038;-58
2022/02/11 11:11:43;;;;;;;4.60;4.20;;;;;;;;;;5022724;28;20042;-58
2022/02/11 11:14:10;;;;;;;4.28;3.88;;;;;;;;;;5019144;28;20034;-58
2022/02/11 11:16:37;;;;;;;6.80;4.25;;;;;;;;;;5019760;28;20031;-59
2022/02/11 11:19:02;;;;;;;4.05;3.53;;;;;;;;;;5016341;28;20095;-59
2022/02/11 11:21:29;;;;;;;3.55;3.25;;;;;;;;;;5018083;28;20041;-59
2022/02/11 11:23:56;;;;;;;3.28;2.97;;;;;;;;;;5020059;28;20115;-59
2022/02/11 11:26:42;;;;;;;3.83;3.53;;;;;;;;;;5020802;28;20030;-59
2022/02/11 11:29:16;;;;;;;3.67;3.38;;;;;;;;;;5020654;28;20176;-59
2022/02/11 11:31:53;;;;;;;3.97;3.60;;;;;;;;;;5018389;28;20025;-59
2022/02/11 11:34:20;;;;;;;3.33;3.03;;;;;;;;;;5019133;28;20033;-59
2022/02/11 11:36:48;;;;;;;5.97;4.45;;;;;;;;;;5022245;28;20052;-59
2022/02/11 11:39:14;;;;;;;3.67;3.38;;;;;;;;;;5020887;28;20337;-59
2022/02/11 11:41:40;;;;;;;3.65;3.35;;;;;;;;;;5020124;28;20115;-58
2022/02/11 11:44:21;;;;;;;9.93;3.65;;;;;;;;;;5020763;28;20706;-58
2022/02/11 11:46:48;;;;;;;;;;;;;;;;;;5018890;28;20037;-58
2022/02/11 11:49:20;;;;;;;3.55;3.25;;;;;;;;;;5019585;28;19909;-59
2022/02/11 11:51:45;;;;;;;4.18;3.88;;;;;;;;;;5019210;28;20029;-58
2022/02/11 11:54:26;;;;;;;3.83;3.53;;;;;;;;;;5021339;28;20022;-59
2022/02/11 11:57:35;;;;;;;4.43;4.05;;;;;;;;;;5019251;28;20029;-58
2022/02/11 12:00:01;;;;;;;4.93;4.43;;;;;;;;;;4988201;28;20257;-58
2022/02/11 12:02:28;;;;;;;4.32;3.97;;;;;;;;;;4987796;28;20524;-58
2022/02/11 12:04:58;;;;;;;4.95;4.55;;;;;;;;;;5004566;28;20061;-58
2022/02/11 12:07:26;;;;;;;4.43;4.03;;;;;;;;;;5020917;28;20460;-58
2022/02/11 12:09:56;;;;;;;4.18;3.88;;;;;;;;;;5019740;28;20060;-59
2022/02/11 12:12:29;;;;;;;4.70;4.30;;;;;;;;;;5021039;28;20467;-58
2022/02/11 12:14:57;;;;;;;4.47;4.07;;;;;;;;;;5016062;28;20069;-58
2022/02/11 12:17:24;;;;;;;4.03;3.72;;;;;;;;;;5020119;28;20040;-59
2022/02/11 12:19:51;;;;;;;4.22;3.83;;;;;;;;;;5020502;28;20079;-58
2022/02/11 12:22:19;;;;;;;4.85;4.45;;;;;;;;;;5019223;28;20658;-59
2022/02/11 12:27:36;;;;;;;5.35;4.80;;;;;;;;;;5018098;28;20096;-59
2022/02/11 12:30:16;;;;;;;4.30;4.00;;;;;;;;;;5019906;28;20387;-59
2022/02/11 12:33:02;;;;;;;5.53;5.03;;;;;;;;;;5018792;28;20113;-58
2022/02/11 12:35:30;;;;;;;14.05;5.50;;;;;;;;;;5016979;28;20052;-58
2022/02/11 12:37:58;;;;;;;5.03;4.63;;;;;;;;;;5018587;28;20080;-58
2022/02/11 12:40:28;;;;;;;4.90;4.50;;;;;;;;;;5019583;28;20033;-58
2022/02/11 12:42:56;;;;;;;5.28;4.65;;;;;;;;;;5019510;28;20359;-58
2022/02/11 12:45:32;;;;;;;4.25;3.85;;;;;;;;;;5017249;28;20030;-59
2022/02/11 12:47:58;;;;;;;4.10;3.75;;;;;;;;;;5018317;28;20457;-58
2022/02/11 12:50:35;;;;;;;4.68;4.28;;;;;;;;;;5015889;28;20089;-59
2022/02/11 12:53:03;;;;;;;4.68;4.28;;;;;;;;;;5016470;28;20547;-59
2022/02/11 12:55:30;;;;;;;3.90;3.60;;;;;;;;;;5016734;28;20359;-59
2022/02/11 12:57:58;;;;;;;4.95;4.22;;;;;;;;;;5017284;28;20041;-59
2022/02/11 13:00:36;;;;;;;5.47;4.97;;;;;;;;;;5015613;28;20047;-59
2022/02/11 13:03:03;;;;;;;5.57;4.70;;;;;;;;;;5019173;28;20040;-59
2022/02/11 13:05:32;;;;;;;4.75;4.35;;;;;;;;;;5019124;28;20120;-59
2022/02/11 13:08:00;;;;;;;5.10;4.65;;;;;;;;;;5016834;28;20034;-59
2022/02/11 13:10:27;;;;;;;4.38;4.05;;;;;;;;;;5019565;28;20109;-59
2022/02/11 13:13:03;;;;;;;4.45;4.05;;;;;;;;;;5018245;28;20083;-59
2022/02/11 13:15:36;;;;;;;5.05;4.65;;;;;;;;;;5017300;28;20116;-58
2022/02/11 13:18:19;;;;;;;4.30;3.90;;;;;;;;;;5020585;28;20684;-58
2022/02/11 13:21:17;;;;;;;3.90;3.58;;;;;;;;;;5017216;28;20037;-59
2022/02/11 13:23:43;;;;;;;5.47;3.72;;;;;;;;;;5010045;28;20730;-58
2022/02/11 13:26:12;;;;;;;4.38;3.97;;;;;;;;;;5016495;28;20044;-58
2022/02/11 13:28:45;;;;;;;4.00;3.70;;;;;;;;;;5018797;28;20108;-58
2022/02/11 13:31:11;;;;;;;4.63;4.22;;;;;;;;;;5018365;28;20041;-59
2022/02/11 13:33:36;;;;;;;3.90;3.60;;;;;;;;;;5018646;28;20037;-59
2022/02/11 13:36:10;;;;;;;4.35;4.05;;;;;;;;;;5020339;28;20459;-59
2022/02/11 13:38:38;;;;;;;4.10;3.80;;;;;;;;;;5020222;28;20034;-59
2022/02/11 13:41:07;;;;;;;4.28;3.97;;;;;;;;;;5020146;28;20041;-59
2022/02/11 13:43:52;;;;;;;4.60;4.20;;;;;;;;;;5016196;28;20034;-59
2022/02/11 13:46:29;;;;;;;4.85;4.45;;;;;;;;;;5019601;28;20029;-59
2022/02/11 13:49:05;;;;;;;4.65;4.25;;;;;;;;;;5017486;28;20040;-59
2022/02/11 13:51:32;;;;;;;4.15;3.75;;;;;;;;;;5019846;28;20294;-59
2022/02/11 13:54:12;;;;;;;4.45;4.05;;;;;;;;;;5018741;28;20049;-59
2022/02/11 13:56:43;;;;;;;4.28;3.97;;;;;;;;;;5019058;28;20033;-59
2022/02/11 13:59:14;;;;;;;4.85;4.45;;;;;;;;;;5019462;28;20025;-59
2022/02/11 14:01:40;;;;;;;4.72;4.32;;;;;;;;;;5018595;28;20084;-59
2022/02/11 14:04:08;;;;;;;4.68;4.28;;;;;;;;;;5021832;28;20362;-59
2022/02/11 14:06:38;;;;;;;4.72;4.30;;;;;;;;;;5024080;28;20544;-59
2022/02/11 14:09:05;;;;;;;4.30;4.00;;;;;;;;;;5022554;28;20030;-58
2022/02/11 14:11:39;;;;;;;6.13;4.05;;;;;;;;;;5021620;28;20129;-59
2022/02/11 14:14:17;;;;;;;4.00;3.70;;;;;;;;;;5021141;28;20041;-59
2022/02/11 14:16:46;;;;;;;4.10;3.70;;;;;;;;;;5022059;28;20041;-59
2022/02/11 14:19:15;;;;;;;4.90;4.50;;;;;;;;;;5022478;28;20029;-59
2022/02/11 14:21:41;;;;;;;4.95;4.47;;;;;;;;;;5023428;28;20101;-59
2022/02/11 14:24:07;;;;;;;3.95;3.65;;;;;;;;;;5023852;28;20164;-59
2022/02/11 14:26:32;;;;;;;4.45;4.07;;;;;;;;;;5023361;28;20116;-59
2022/02/11 14:28:57;;;;;;;4.05;3.72;;;;;;;;;;5023950;28;20363;-59
2022/02/11 14:31:23;;;;;;;4.20;3.90;;;;;;;;;;5020242;28;20033;-59
2022/02/11 14:33:48;;;;;;;5.25;4.13;;;;;;;;;;5021876;28;20026;-58
2022/02/11 14:36:14;;;;;;;4.00;3.70;;;;;;;;;;5020676;28;20399;-58
2022/02/11 14:38:39;;;;;;;4.38;4.00;;;;;;;;;;5021940;28;20119;-58
2022/02/11 14:43:48;;;;;;;4.13;3.83;;;;;;;;;;5022150;28;20040;-58
2022/02/11 14:46:14;;;;;;;5.75;3.80;;;;;;;;;;5022494;28;20025;-58
2022/02/11 14:48:40;;;;;;;13.02;5.13;;;;;;;;;;5020877;28;20037;-58
2022/02/11 14:51:06;;;;;;;4.10;3.80;;;;;;;;;;5012230;28;20164;-58
2022/02/11 14:53:31;;;;;;;4.15;3.85;;;;;;;;;;5020446;28;20479;-58
2022/02/11 14:55:57;;;;;;;6.80;3.83;;;;;;;;;;5021480;28;20034;-58
2022/02/11 14:58:22;;;;;;;5.97;4.05;;;;;;;;;;5023639;28;20046;-58
2022/02/11 15:00:48;;;;;;;4.75;3.97;;;;;;;;;;5022519;28;20029;-58
2022/02/11 15:03:13;;;;;;;4.35;3.95;;;;;;;;;;5020618;28;20037;-58
2022/02/11 15:05:39;;;;;;;5.07;4.68;;;;;;;;;;5020155;28;20029;-58
2022/02/11 15:08:04;;;;;;;4.43;4.10;;;;;;;;;;5022749;28;20108;-59
2022/02/11 15:10:30;;;;;;;4.65;4.25;;;;;;;;;;5014476;28;20041;-58
2022/02/11 15:12:55;;;;;;;4.78;4.38;;;;;;;;;;5021038;28;20092;-58
2022/02/11 15:15:21;;;;;;;4.10;3.80;;;;;;;;;;5016769;28;20451;-58
2022/02/11 15:17:46;;;;;;;5.07;4.63;;;;;;;;;;5017767;28;20025;-58
2022/02/11 15:20:12;;;;;;;5.65;5.15;;;;;;;;;;5022833;28;20064;-58
2022/02/11 15:22:38;;;;;;;8.85;5.72;;;;;;;;;;5019236;28;20133;-59
2022/02/11 15:25:03;;;;;;;4.80;4.32;;;;;;;;;;5021933;28;20112;-58
2022/02/11 15:27:29;;;;;;;4.75;4.35;;;;;;;;;;5020147;28;20944;-60
2022/02/11 15:29:56;;;;;;;4.78;4.38;;;;;;;;;;5011548;28;20502;-59
2022/02/11 15:32:21;;;;;;;4.45;4.05;;;;;;;;;;5018174;28;20467;-59
2022/02/11 15:34:47;;;;;;;4.18;3.85;;;;;;;;;;5016206;28;20069;-60
2022/02/11 15:37:16;;;;;;;6.40;4.85;;;;;;;;;;5017017;28;20480;-60
2022/02/11 15:39:42;;;;;;;7.35;4.30;;;;;;;;;;5020816;28;20359;-60
2022/02/11 15:42:08;;;;;;;3.88;3.58;;;;;;;;;;5026749;28;20036;-60
2022/02/11 15:44:33;;;;;;;4.72;4.32;;;;;;;;;;5019396;28;20030;-60
2022/02/11 15:46:59;;;;;;;5.00;4.18;;;;;;;;;;5018501;28;20033;-60
2022/02/11 15:49:24;;;;;;;4.20;3.90;;;;;;;;;;5018857;28;20048;-61
2022/02/11 15:51:50;;;;;;;5.30;4.80;;;;;;;;;;5020502;28;20033;-61
2022/02/11 15:54:16;;;;;;;4.55;4.18;;;;;;;;;;5015651;28;20451;-61
2022/02/11 15:56:41;;;;;;;4.70;4.30;;;;;;;;;;5010263;28;20095;-59
2022/02/11 15:59:07;;;;;;;5.60;5.13;;;;;;;;;;5017981;28;20039;-62
2022/02/11 16:01:32;;;;;;;4.60;4.20;;;;;;;;;;5018326;28;20037;-64
2022/02/11 16:03:59;;;;;;;6.45;5.93;;;;;;;;;;5015140;28;20069;-61
2022/02/11 16:06:25;;;;;;;16.45;4.35;;;;;;;;;;5019479;28;20323;-61
2022/02/11 16:08:50;;;;;;;9.82;4.63;;;;;;;;;;5021729;28;20048;-61
2022/02/11 16:11:16;;;;;;;4.55;4.20;;;;;;;;;;5021312;28;20367;-62
2022/02/11 16:13:41;;;;;;;4.50;4.10;;;;;;;;;;5020957;28;20029;-62
2022/02/11 16:16:06;;;;;;;4.90;4.50;;;;;;;;;;5016548;28;20120;-61
2022/02/11 16:18:33;;;;;;;4.30;3.90;;;;;;;;;;5013665;28;20040;-60
2022/02/11 16:20:58;;;;;;;4.93;4.45;;;;;;;;;;5017286;28;20044;-61
2022/02/11 16:23:24;;;;;;;4.57;4.18;;;;;;;;;;5020378;28;20021;-61
2022/02/11 16:25:51;;;;;;;4.25;3.85;;;;;;;;;;5023881;28;20759;-60
2022/02/11 16:28:19;;;;;;;4.22;3.90;;;;;;;;;;5020445;28;20424;-61
2022/02/11 16:30:46;;;;;;;4.32;3.95;;;;;;;;;;5019453;28;20422;-62
2022/02/11 16:33:12;;;;;;;4.85;4.45;;;;;;;;;;5020328;28;20510;-62
2022/02/11 16:35:40;;;;;;;4.38;3.97;;;;;;;;;;5016348;28;20121;-62
2022/02/11 16:38:08;;;;;;;4.38;3.97;;;;;;;;;;5016556;28;20041;-62
2022/02/11 16:40:33;;;;;;;4.05;3.70;;;;;;;;;;5015701;28;20044;-62
2022/02/11 16:42:59;;;;;;;4.72;4.32;;;;;;;;;;5018520;28;20026;-63
2022/02/11 16:45:24;;;;;;;4.78;4.38;;;;;;;;;;5016904;28;20090;-62
2022/02/11 16:47:50;;;;;;;4.78;4.30;;;;;;;;;;5020921;28;20044;-63
2022/02/11 16:50:16;;;;;;;5.32;4.93;;;;;;;;;;5019824;28;20033;-62
2022/02/11 16:52:41;;;;;;;6.53;4.63;;;;;;;;;;5019192;28;20044;-62
2022/02/11 16:55:09;;;;;;;4.43;4.03;;;;;;;;;;5020461;28;20034;-65
2022/02/11 16:57:34;;;;;;;4.95;4.55;;;;;;;;;;5017496;28;20209;-65
2022/02/11 17:00:00;;;;;;;4.20;3.90;;;;;;;;;;5012675;28;20128;-61
2022/02/11 17:02:27;;;;;;;4.97;4.25;;;;;;;;;;5017487;28;20112;-62
2022/02/11 17:04:53;;;;;;;5.78;5.25;;;;;;;;;;5016163;28;20645;-61
2022/02/11 17:07:19;;;;;;;5.07;4.68;;;;;;;;;;5018480;28;20041;-60
2022/02/11 17:09:46;;;;;;;6.57;5.97;;;;;;;;;;5019394;28;20033;-59
2022/02/11 17:12:12;;;;;;;5.60;5.10;;;;;;;;;;5020573;28;20490;-60
2022/02/11 17:14:37;;;;;;;5.32;4.82;;;;;;;;;;5020152;28;20065;-62
2022/02/11 17:17:03;;;;;;;4.82;4.43;;;;;;;;;;5019848;28;20098;-61
2022/02/11 17:19:29;;;;;;;4.78;4.32;;;;;;;;;;5016583;28;20048;-60
2022/02/11 17:21:54;;;;;;;8.52;5.13;;;;;;;;;;5016677;28;20049;-60
2022/02/11 17:24:20;;;;;;;3.92;3.63;;;;;;;;;;5015154;28;20102;-60
2022/02/11 17:26:46;;;;;;;15.27;4.70;;;;;;;;;;5017224;28;20030;-60
2022/02/11 17:29:12;;;;;;;6.43;4.13;;;;;;;;;;5019853;28;20045;-60
2022/02/11 17:31:38;;;;;;;7.40;6.15;;;;;;;;;;5019437;28;20040;-60
2022/02/11 17:34:04;;;;;;;9.35;4.85;;;;;;;;;;5018828;28;20026;-61
2022/02/11 17:36:30;;;;;;;4.63;4.22;;;;;;;;;;5013511;28;20026;-60
2022/02/11 17:38:58;;;;;;;5.18;4.68;;;;;;;;;;5018833;28;20470;-60
2022/02/11 17:41:24;;;;;;;5.20;4.70;;;;;;;;;;5018650;28;20132;-60
2022/02/11 17:43:50;;;;;;;5.15;3.97;;;;;;;;;;5018296;28;20152;-60
2022/02/11 17:46:16;;;;;;;4.65;4.20;;;;;;;;;;5016740;28;20045;-61
2022/02/11 17:48:41;;;;;;;5.93;4.85;;;;;;;;;;5018857;28;20037;-61
2022/02/11 17:51:07;;;;;;;8.43;5.03;;;;;;;;;;5018837;28;20478;-60
2022/02/11 17:53:32;;;;;;;4.47;4.05;;;;;;;;;;5020628;28;20064;-61
2022/02/11 17:55:58;;;;;;;4.32;3.92;;;;;;;;;;5016859;28;20108;-60
2022/02/11 17:58:23;;;;;;;4.55;4.15;;;;;;;;;;5018104;28;20382;-61
2022/02/11 18:00:49;;;;;;;6.03;4.68;;;;;;;;;;5019675;28;20032;-60
2022/02/11 18:03:14;;;;;;;4.35;3.95;;;;;;;;;;5018851;28;20648;-60
2022/02/11 18:05:40;;;;;;;4.30;3.90;;;;;;;;;;5014809;28;20038;-60
2022/02/11 18:08:07;;;;;;;3.40;3.10;;;;;;;;;;5015309;28;20033;-60
2022/02/11 18:10:33;;;;;;;11.02;3.85;;;;;;;;;;5016525;28;20108;-61
2022/02/11 18:12:59;;;;;;;5.85;4.43;;;;;;;;;;5017610;28;20030;-62
2022/02/11 18:15:24;;;;;;;6.82;3.50;;;;;;;;;;5019372;28;20348;-61
2022/02/11 18:17:50;;;;;;;3.67;3.30;;;;;;;;;;5016400;28;20044;-62
2022/02/11 18:20:16;;;;;;;3.42;3.13;;;;;;;;;;5019178;28;20079;-61
2022/02/11 18:22:42;;;;;;;3.60;3.30;;;;;;;;;;5018560;28;20026;-61
2022/02/11 18:25:10;;;;;;;5.90;4.15;;;;;;;;;;5018632;28;20030;-62
2022/02/11 18:27:35;;;;;;;4.00;3.60;;;;;;;;;;5016988;28;20034;-61